(°C)
35°
35°
34°
31°
29°
26°
24°
(°C)
34°
34°
33°
31°
29°
27°
25°
SSZ
SSZ
SSZ
SSZ
SSZ
SSZ
SSZ
(km/h)
14-25
15-25
14-24
13-22
12-22
11-22
11-22
(mm)
0
0
0
0
0
0
0
(%)
0
6
6
6
13
14
7

Sluneční výška

/ 36.1°
sun-icon
UV 6
05:16
21:55
Úplněk (176°)
21:57
04:29

METAR pro 51.15°S 51.54°V (UARR)

Čas Podmínky Teplota/
Rosný bod
Vítr Viditelnost Počasí Oblaky Tlak Změna Nezpracované
VFR 36°C / 13°C 280º variable 220º to 300º 8kt >10km - Clouds and Visibility OK 1016 No Significant change UARR 241200Z 28004MPS 220V300 CAVOK 36/13 Q1016 R04/CLRD70 NOSIG RMK QFE758/1011
VFR 35°C / 13°C 300º variable 260º to 360º 6kt >10km - Clouds and Visibility OK 1015 No Significant change UARR 241130Z 30003MPS 260V360 CAVOK 35/13 Q1015 R04/CLRD70 NOSIG RMK QFE758/1011
VFR 36°C / 12°C 270º variable 230º to 330º 10kt >10km - Clouds and Visibility OK 1016 No Significant change UARR 241100Z 27005MPS 230V330 CAVOK 36/12 Q1016 R04/CLRD70 NOSIG RMK QFE758/1011
VFR 36°C / 12°C 270º 10kt >10km - Clouds and Visibility OK 1016 No Significant change UARR 241054Z 27005MPS CAVOK 36/12 Q1016 R04/CLRD70 NOSIG RMK QFE758/1011
VFR 34°C / 12°C 350º 4kt >10km - Clouds and Visibility OK 1016 No Significant change UARR 241030Z 35002MPS CAVOK 34/12 Q1016 R04/CLRD70 NOSIG RMK QFE758/1011
VFR 35°C / 14°C 360º 4kt >10km - Clouds and Visibility OK 1016 No Significant change UARR 241000Z 36002MPS CAVOK 35/14 Q1016 R04/CLRD70 NOSIG RMK QFE759/1012
VFR 35°C / 14°C 340º variable 250º to 010º 10kt >10km - Clouds and Visibility OK 1016 No Significant change UARR 240930Z 34005MPS 250V010 CAVOK 35/14 Q1016 R04/CLRD70 NOSIG RMK QFE759/1012
VFR 35°C / 14°C 310º variable 270º to 350º 6kt >10km - Clouds and Visibility OK 1017 No Significant change UARR 240900Z 31003MPS 270V350 CAVOK 35/14 Q1017 R04/CLRD70 NOSIG RMK QFE759/1012
VFR 35°C / 14°C 350º variable 290º to 090º 4kt >10km - Clouds and Visibility OK 1017 No Significant change UARR 240830Z 35002MPS 290V090 CAVOK 35/14 Q1017 R04/CLRD70 NOSIG RMK QFE759/1012
VFR 34°C / 13°C 100º 6kt >10km - Clouds and Visibility OK 1017 No Significant change UARR 240800Z 10003MPS CAVOK 34/13 Q1017 R04/CLRD70 NOSIG RMK QFE759/1012
VFR 33°C / 14°C 360º 4kt >10km - Clouds and Visibility OK 1017 No Significant change UARR 240730Z 36002MPS CAVOK 33/14 Q1017 R04/CLRD70 NOSIG RMK QFE759/1012
VFR 33°C / 15°C 340º variable 310º to 020º 6kt >10km - Clouds and Visibility OK 1017 No Significant change UARR 240700Z 34003MPS 310V020 CAVOK 33/15 Q1017 R04/CLRD70 NOSIG RMK QFE759/1013
VFR 33°C / 15°C 360º 6kt >10km - Clouds and Visibility OK 1017 No Significant change UARR 240630Z 36003MPS CAVOK 33/15 Q1017 R04/CLRD70 NOSIG RMK QFE759/1013
VFR 32°C / 16°C 350º variable 310º to 030º 8kt >10km - Clouds and Visibility OK 1017 No Significant change UARR 240600Z 35004MPS 310V030 CAVOK 32/16 Q1017 R04/CLRD70 NOSIG RMK QFE759/1013
VFR 31°C / 17°C 10º variable 310º to 090º 4kt >10km - Clouds and Visibility OK 1017 No Significant change UARR 240530Z 01002MPS 310V090 CAVOK 31/17 Q1017 R04/CLRD70 NOSIG RMK QFE759/1013
VFR 30°C / 17°C 20º variable 340º to 060º 6kt >10km - Clouds and Visibility OK 1017 No Significant change UARR 240500Z 02003MPS 340V060 CAVOK 30/17 Q1017 R04/CLRD70 NOSIG RMK QFE759/1013
VFR 28°C / 17°C 30º 8kt >10km - Clouds and Visibility OK 1017 No Significant change UARR 240430Z 03004MPS CAVOK 28/17 Q1017 R04/CLRD70 NOSIG RMK QFE759/1013
VFR 27°C / 17°C 360º 8kt >10km - Clouds and Visibility OK 1017 No Significant change UARR 240400Z 36004MPS CAVOK 27/17 Q1017 R04/CLRD70 NOSIG RMK QFE759/1013
VFR 26°C / 17°C 360º 6kt >10km - Clouds and Visibility OK 1017 No Significant change UARR 240330Z 36003MPS CAVOK 26/17 Q1017 R22/CLRD70 NOSIG RMK QFE759/1012
VFR 24°C / 16°C 350º 6kt >10km - Clouds and Visibility OK 1017 No Significant change UARR 240300Z 35003MPS CAVOK 24/16 Q1017 R22/CLRD70 NOSIG RMK QFE759/1012
VFR 23°C / 16°C 320º 4kt >10km - Clouds and Visibility OK 1017 No Significant change UARR 240230Z 32002MPS CAVOK 23/16 Q1017 R04/CLRD70 NOSIG RMK QFE759/1012
VFR 22°C / 16°C 300º 2kt >10km - Clouds and Visibility OK 1017 No Significant change UARR 240200Z 30001MPS CAVOK 22/16 Q1017 R04/CLRD70 NOSIG RMK QFE759/1012
VFR 20°C / 16°C 340º 6kt >10km - Clouds and Visibility OK 1017 No Significant change UARR 240130Z 34003MPS CAVOK 20/16 Q1017 R04/CLRD70 NOSIG RMK QFE759/1012
VFR 19°C / 15°C 340º 4kt >10km - Clouds and Visibility OK 1017 No Significant change UARR 240100Z 34002MPS CAVOK 19/15 Q1017 R04/CLRD70 NOSIG RMK QFE759/1012

VFR

36°C / 13°C

[Víc]
Vítr 280º variable 220º to 300º 8kt
Viditelnost >10km
Počasí -
Oblaky Clouds and Visibility OK
Tlak 1016
Změna No Significant change
Nezpracované UARR 241200Z 28004MPS 220V300 CAVOK 36/13 Q1016 R04/CLRD70 NOSIG RMK QFE758/1011

VFR

35°C / 13°C

[Víc]
Vítr 300º variable 260º to 360º 6kt
Viditelnost >10km
Počasí -
Oblaky Clouds and Visibility OK
Tlak 1015
Změna No Significant change
Nezpracované UARR 241130Z 30003MPS 260V360 CAVOK 35/13 Q1015 R04/CLRD70 NOSIG RMK QFE758/1011

VFR

36°C / 12°C

[Víc]
Vítr 270º variable 230º to 330º 10kt
Viditelnost >10km
Počasí -
Oblaky Clouds and Visibility OK
Tlak 1016
Změna No Significant change
Nezpracované UARR 241100Z 27005MPS 230V330 CAVOK 36/12 Q1016 R04/CLRD70 NOSIG RMK QFE758/1011

VFR

36°C / 12°C

[Víc]
Vítr 270º 10kt
Viditelnost >10km
Počasí -
Oblaky Clouds and Visibility OK
Tlak 1016
Změna No Significant change
Nezpracované UARR 241054Z 27005MPS CAVOK 36/12 Q1016 R04/CLRD70 NOSIG RMK QFE758/1011

VFR

34°C / 12°C

[Víc]
Vítr 350º 4kt
Viditelnost >10km
Počasí -
Oblaky Clouds and Visibility OK
Tlak 1016
Změna No Significant change
Nezpracované UARR 241030Z 35002MPS CAVOK 34/12 Q1016 R04/CLRD70 NOSIG RMK QFE758/1011

VFR

35°C / 14°C

[Víc]
Vítr 360º 4kt
Viditelnost >10km
Počasí -
Oblaky Clouds and Visibility OK
Tlak 1016
Změna No Significant change
Nezpracované UARR 241000Z 36002MPS CAVOK 35/14 Q1016 R04/CLRD70 NOSIG RMK QFE759/1012

VFR

35°C / 14°C

[Víc]
Vítr 340º variable 250º to 010º 10kt
Viditelnost >10km
Počasí -
Oblaky Clouds and Visibility OK
Tlak 1016
Změna No Significant change
Nezpracované UARR 240930Z 34005MPS 250V010 CAVOK 35/14 Q1016 R04/CLRD70 NOSIG RMK QFE759/1012

VFR

35°C / 14°C

[Víc]
Vítr 310º variable 270º to 350º 6kt
Viditelnost >10km
Počasí -
Oblaky Clouds and Visibility OK
Tlak 1017
Změna No Significant change
Nezpracované UARR 240900Z 31003MPS 270V350 CAVOK 35/14 Q1017 R04/CLRD70 NOSIG RMK QFE759/1012

VFR

35°C / 14°C

[Víc]
Vítr 350º variable 290º to 090º 4kt
Viditelnost >10km
Počasí -
Oblaky Clouds and Visibility OK
Tlak 1017
Změna No Significant change
Nezpracované UARR 240830Z 35002MPS 290V090 CAVOK 35/14 Q1017 R04/CLRD70 NOSIG RMK QFE759/1012

VFR

34°C / 13°C

[Víc]
Vítr 100º 6kt
Viditelnost >10km
Počasí -
Oblaky Clouds and Visibility OK
Tlak 1017
Změna No Significant change
Nezpracované UARR 240800Z 10003MPS CAVOK 34/13 Q1017 R04/CLRD70 NOSIG RMK QFE759/1012

VFR

33°C / 14°C

[Víc]
Vítr 360º 4kt
Viditelnost >10km
Počasí -
Oblaky Clouds and Visibility OK
Tlak 1017
Změna No Significant change
Nezpracované UARR 240730Z 36002MPS CAVOK 33/14 Q1017 R04/CLRD70 NOSIG RMK QFE759/1012

VFR

33°C / 15°C

[Víc]
Vítr 340º variable 310º to 020º 6kt
Viditelnost >10km
Počasí -
Oblaky Clouds and Visibility OK
Tlak 1017
Změna No Significant change
Nezpracované UARR 240700Z 34003MPS 310V020 CAVOK 33/15 Q1017 R04/CLRD70 NOSIG RMK QFE759/1013

VFR

33°C / 15°C

[Víc]
Vítr 360º 6kt
Viditelnost >10km
Počasí -
Oblaky Clouds and Visibility OK
Tlak 1017
Změna No Significant change
Nezpracované UARR 240630Z 36003MPS CAVOK 33/15 Q1017 R04/CLRD70 NOSIG RMK QFE759/1013

VFR

32°C / 16°C

[Víc]
Vítr 350º variable 310º to 030º 8kt
Viditelnost >10km
Počasí -
Oblaky Clouds and Visibility OK
Tlak 1017
Změna No Significant change
Nezpracované UARR 240600Z 35004MPS 310V030 CAVOK 32/16 Q1017 R04/CLRD70 NOSIG RMK QFE759/1013

VFR

31°C / 17°C

[Víc]
Vítr 10º variable 310º to 090º 4kt
Viditelnost >10km
Počasí -
Oblaky Clouds and Visibility OK
Tlak 1017
Změna No Significant change
Nezpracované UARR 240530Z 01002MPS 310V090 CAVOK 31/17 Q1017 R04/CLRD70 NOSIG RMK QFE759/1013

VFR

30°C / 17°C

[Víc]
Vítr 20º variable 340º to 060º 6kt
Viditelnost >10km
Počasí -
Oblaky Clouds and Visibility OK
Tlak 1017
Změna No Significant change
Nezpracované UARR 240500Z 02003MPS 340V060 CAVOK 30/17 Q1017 R04/CLRD70 NOSIG RMK QFE759/1013

VFR

28°C / 17°C

[Víc]
Vítr 30º 8kt
Viditelnost >10km
Počasí -
Oblaky Clouds and Visibility OK
Tlak 1017
Změna No Significant change
Nezpracované UARR 240430Z 03004MPS CAVOK 28/17 Q1017 R04/CLRD70 NOSIG RMK QFE759/1013

VFR

27°C / 17°C

[Víc]
Vítr 360º 8kt
Viditelnost >10km
Počasí -
Oblaky Clouds and Visibility OK
Tlak 1017
Změna No Significant change
Nezpracované UARR 240400Z 36004MPS CAVOK 27/17 Q1017 R04/CLRD70 NOSIG RMK QFE759/1013

VFR

26°C / 17°C

[Víc]
Vítr 360º 6kt
Viditelnost >10km
Počasí -
Oblaky Clouds and Visibility OK
Tlak 1017
Změna No Significant change
Nezpracované UARR 240330Z 36003MPS CAVOK 26/17 Q1017 R22/CLRD70 NOSIG RMK QFE759/1012

VFR

24°C / 16°C

[Víc]
Vítr 350º 6kt
Viditelnost >10km
Počasí -
Oblaky Clouds and Visibility OK
Tlak 1017
Změna No Significant change
Nezpracované UARR 240300Z 35003MPS CAVOK 24/16 Q1017 R22/CLRD70 NOSIG RMK QFE759/1012

VFR

23°C / 16°C

[Víc]
Vítr 320º 4kt
Viditelnost >10km
Počasí -
Oblaky Clouds and Visibility OK
Tlak 1017
Změna No Significant change
Nezpracované UARR 240230Z 32002MPS CAVOK 23/16 Q1017 R04/CLRD70 NOSIG RMK QFE759/1012

VFR

22°C / 16°C

[Víc]
Vítr 300º 2kt
Viditelnost >10km
Počasí -
Oblaky Clouds and Visibility OK
Tlak 1017
Změna No Significant change
Nezpracované UARR 240200Z 30001MPS CAVOK 22/16 Q1017 R04/CLRD70 NOSIG RMK QFE759/1012

VFR

20°C / 16°C

[Víc]
Vítr 340º 6kt
Viditelnost >10km
Počasí -
Oblaky Clouds and Visibility OK
Tlak 1017
Změna No Significant change
Nezpracované UARR 240130Z 34003MPS CAVOK 20/16 Q1017 R04/CLRD70 NOSIG RMK QFE759/1012

VFR

19°C / 15°C

[Víc]
Vítr 340º 4kt
Viditelnost >10km
Počasí -
Oblaky Clouds and Visibility OK
Tlak 1017
Změna No Significant change
Nezpracované UARR 240100Z 34002MPS CAVOK 19/15 Q1017 R04/CLRD70 NOSIG RMK QFE759/1012

TAF pro 51.15°S 51.54°V (UARR)

From till


From till Wind 20º 10kt. Visibility 10km or more. Scattered Clouds 5000ft.
Temporarly from till Wind variable 4kt.
With 40% probability, Temporarly from till Thunderstorm .

Nezpracované: TAF UARR 241100Z 2412/2421 02005MPS 9999 SCT050CB TEMPO 2412/2414 VRB02MPS PROB40 TEMPO 2414/2418 TS

Aktuální snímky ze satelitu a srážky pro 51.15°S 51.54°V

Značka polohy je umístěna na 51.15°S 51.54°V. [Víc]

Satelitní snímek v reálném čase kombinuje viditelné světlo během dne s infračerveným zářením během noci. V noci není obraz tmavý, protože infračervené záření dokáže detekovat teplotní rozdíly. Nízká oblačnost a mlha se bohužel těžko odlišují od pozemních teplot, a proto mohou být během noci téměř neviditelné. Satelitní snímky z Meteosatu pro Evropu jsou aktualizovány v reálném čase každých 5 minut. Snímky z GOES-16/GOES-17 (Severní a Jižní Amerika) a Himawari (Asie) jsou aktualizovány) každých 10 minut.

Copyright 2021 EUMETSAT / meteoblue. / Copyright 2021 meteoblue

Radar a krátkodobá předpověď srážek pro 51.15°S 51.54°V

Značka lokality je umístněna na 51.15°S 51.54°V. Tato animace ukazuje srážky zaznamenané radarem za poslední hodinu a také 1h předpověď. Mrholení nebo slabé sněžení mohou být pro radar neviditelné. Intenzita srážek používá barevní kód od světle modré po tmavě fialovou.